createdAt,value
2019-02-07T00:06:16.653Z,30.45
2019-02-07T00:16:18.610Z,30.27
2019-02-07T00:26:20.995Z,30.05
2019-02-07T00:36:23.439Z,30.95
2019-02-07T00:46:25.664Z,31.90
2019-02-07T00:56:27.602Z,27.48
2019-02-07T01:06:29.901Z,29.30
2019-02-07T01:16:31.894Z,32.95
2019-02-07T01:26:33.922Z,26.65
2019-02-07T01:36:36.152Z,28.45
2019-02-07T01:46:38.902Z,23.22
2019-02-07T01:56:40.866Z,30.20
2019-02-07T02:06:43.043Z,31.80
2019-02-07T02:16:45.225Z,27.00
2019-02-07T02:26:47.662Z,28.40
2019-02-07T02:36:52.774Z,34.45
2019-02-07T02:46:54.902Z,25.37
2019-02-07T02:56:56.844Z,36.08
2019-02-07T03:06:58.870Z,37.25
2019-02-07T03:17:01.280Z,28.40
2019-02-07T03:27:03.538Z,30.40
2019-02-07T03:37:05.873Z,29.15
2019-02-07T03:47:07.778Z,29.72
2019-02-07T03:57:10.128Z,25.82
2019-02-07T04:07:12.189Z,27.85
2019-02-07T04:17:14.342Z,27.42
2019-02-07T04:27:16.275Z,29.15
2019-02-07T04:37:18.520Z,30.72
2019-02-07T04:47:20.443Z,26.90
2019-02-07T04:57:22.410Z,30.88
2019-02-07T05:07:24.555Z,30.05
2019-02-07T05:17:26.735Z,33.13
2019-02-07T05:27:29.000Z,30.17
2019-02-07T05:37:31.255Z,29.80
2019-02-07T05:47:33.390Z,27.37
2019-02-07T05:57:35.379Z,24.77
2019-02-07T06:07:37.303Z,24.60
2019-02-07T06:17:39.554Z,30.37
2019-02-07T06:27:41.501Z,22.70
2019-02-07T06:37:43.618Z,28.10
2019-02-07T06:47:45.650Z,24.23
2019-02-07T06:57:47.999Z,23.40
2019-02-07T07:07:50.003Z,27.95
2019-02-07T07:17:54.110Z,21.97
2019-02-07T07:27:56.163Z,29.80
2019-02-07T07:37:58.385Z,23.02
2019-02-07T07:48:00.680Z,29.48
2019-02-07T07:58:03.067Z,23.50
2019-02-07T08:08:05.103Z,22.55
2019-02-07T08:18:07.085Z,17.27
2019-02-07T08:28:09.418Z,16.45
2019-02-07T08:38:11.413Z,15.72
2019-02-07T08:48:13.392Z,16.95
2019-02-07T08:58:15.359Z,10.90
2019-02-07T09:08:17.390Z,5.47
2019-02-07T09:18:19.370Z,9.80
2019-02-07T09:28:21.326Z,8.63
2019-02-07T09:38:23.307Z,20.12
2019-02-07T09:48:25.318Z,30.45
2019-02-07T09:58:27.263Z,33.80
2019-02-07T10:08:29.216Z,47.13
2019-02-07T10:18:33.326Z,27.83
2019-02-07T10:28:35.847Z,34.55
2019-02-07T10:38:39.920Z,25.68
2019-02-07T10:48:44.491Z,34.27
2019-02-07T10:58:46.442Z,25.05
2019-02-07T11:08:48.408Z,30.20
2019-02-07T11:18:55.630Z,36.42
2019-02-07T11:28:54.443Z,26.33
2019-02-07T11:38:56.560Z,22.48
2019-02-07T11:49:06.485Z,23.87
2019-02-07T11:59:03.449Z,34.08
2019-02-07T12:09:08.403Z,42.27
2019-02-07T12:19:17.767Z,25.95
2019-02-07T12:29:33.616Z,24.60
2019-02-07T12:39:36.307Z,21.70
2019-02-07T12:49:38.402Z,14.58
2019-02-07T12:59:40.379Z,13.88
2019-02-07T13:09:42.858Z,23.65
2019-02-07T13:19:45.486Z,18.37
2019-02-07T13:29:47.444Z,28.42
2019-02-07T13:39:49.435Z,14.58
2019-02-07T13:49:52.362Z,23.22
2019-02-07T13:59:54.639Z,22.15
2019-02-07T14:09:56.581Z,15.20
2019-02-07T14:20:03.729Z,11.68
2019-02-07T14:30:03.171Z,12.33
2019-02-07T14:40:07.495Z,14.47
2019-02-07T14:50:14.979Z,11.53
2019-02-07T15:00:17.408Z,19.37
2019-02-07T15:10:38.790Z,18.07
2019-02-07T15:20:40.794Z,14.07
2019-02-07T15:30:42.782Z,20.02
2019-02-07T15:40:45.395Z,15.05
2019-02-07T15:50:47.670Z,28.07
2019-02-07T16:00:49.619Z,15.68
2019-02-07T16:10:51.930Z,17.85
2019-02-07T16:20:53.917Z,14.13
2019-02-07T16:30:56.091Z,14.58
2019-02-07T16:40:59.139Z,13.75
2019-02-07T16:51:03.181Z,11.75
2019-02-07T17:01:06.922Z,6.65
2019-02-07T17:11:09.002Z,13.35
2019-02-07T17:21:12.922Z,13.35
2019-02-07T17:31:15.292Z,10.63
2019-02-07T17:41:17.567Z,17.10
2019-02-07T17:51:23.351Z,11.20
2019-02-07T18:01:23.287Z,13.13
2019-02-07T18:11:25.674Z,17.67
2019-02-07T18:21:33.921Z,9.63
2019-02-07T18:31:31.400Z,11.75
2019-02-07T18:41:33.363Z,8.35
2019-02-07T18:51:45.205Z,9.45
2019-02-07T19:01:39.152Z,5.95
2019-02-07T19:11:41.134Z,7.35
2019-02-07T19:21:43.798Z,9.48
2019-02-07T19:31:45.911Z,7.70
2019-02-07T19:41:48.659Z,11.68
2019-02-07T19:51:50.745Z,8.07
2019-02-07T20:01:52.934Z,11.88
2019-02-07T20:11:55.023Z,5.33
2019-02-07T20:21:57.111Z,5.35
2019-02-07T20:31:59.642Z,6.50
2019-02-07T20:42:01.855Z,15.45
2019-02-07T20:52:04.355Z,9.90
2019-02-07T21:02:06.311Z,11.97
2019-02-07T21:12:08.427Z,10.82
2019-02-07T21:22:10.474Z,11.45
2019-02-07T21:32:13.164Z,13.97
2019-02-07T21:42:15.312Z,13.45
2019-02-07T21:52:17.458Z,8.80
2019-02-07T22:02:20.319Z,7.33
2019-02-07T22:12:22.620Z,7.03
2019-02-07T22:22:24.599Z,6.75
2019-02-07T22:32:26.923Z,9.45
2019-02-07T22:42:29.240Z,4.50
2019-02-07T22:52:31.566Z,13.15
2019-02-07T23:02:33.729Z,9.00
2019-02-07T23:12:36.116Z,18.02
2019-02-07T23:22:38.350Z,10.55
2019-02-07T23:32:40.727Z,6.35
2019-02-07T23:42:43.099Z,6.45
2019-02-07T23:52:45.065Z,7.65
